createdAt,value
2018-04-15T00:02:21.236Z,11.90
2018-04-15T00:04:47.499Z,11.90
2018-04-15T00:07:13.731Z,12.00
2018-04-15T00:09:39.966Z,11.90
2018-04-15T00:12:06.195Z,11.80
2018-04-15T00:14:32.415Z,11.90
2018-04-15T00:16:58.670Z,11.80
2018-04-15T00:19:24.876Z,11.70
2018-04-15T00:21:51.198Z,11.60
2018-04-15T00:24:17.479Z,11.70
2018-04-15T00:26:43.775Z,11.70
2018-04-15T00:29:10.012Z,11.60
2018-04-15T00:31:36.237Z,11.60
2018-04-15T00:34:02.457Z,11.60
2018-04-15T00:36:28.661Z,11.60
2018-04-15T00:38:54.918Z,11.50
2018-04-15T00:41:21.126Z,11.50
2018-04-15T00:43:47.396Z,11.50
2018-04-15T00:46:13.695Z,11.50
2018-04-15T00:48:39.946Z,11.50
2018-04-15T00:51:06.196Z,11.50
2018-04-15T00:53:45.409Z,11.50
2018-04-15T00:56:11.654Z,11.50
2018-04-15T00:58:37.928Z,11.60
2018-04-15T01:01:04.179Z,11.60
2018-04-15T01:03:31.247Z,11.50
2018-04-15T01:05:57.577Z,11.50
2018-04-15T01:08:24.353Z,11.60
2018-04-15T01:10:50.584Z,11.60
2018-04-15T01:13:17.602Z,11.70
2018-04-15T01:15:43.854Z,11.70
2018-04-15T01:18:10.095Z,11.60
2018-04-15T01:20:36.386Z,11.70
2018-04-15T01:23:02.662Z,11.70
2018-04-15T01:25:29.005Z,11.60
2018-04-15T01:27:55.308Z,11.70
2018-04-15T01:30:21.562Z,11.60
2018-04-15T01:32:47.860Z,11.70
2018-04-15T01:35:14.146Z,11.70
2018-04-15T01:37:40.394Z,11.70
2018-04-15T01:40:06.625Z,11.70
2018-04-15T01:42:32.887Z,11.60
2018-04-15T01:44:59.105Z,11.70
2018-04-15T01:47:26.232Z,11.70
2018-04-15T01:49:53.195Z,11.70
2018-04-15T01:52:19.404Z,11.70
2018-04-15T01:54:45.669Z,11.70
2018-04-15T01:57:11.871Z,11.80
2018-04-15T01:59:38.089Z,11.70
2018-04-15T02:02:04.346Z,11.70
2018-04-15T02:04:30.556Z,11.70
2018-04-15T02:06:57.609Z,11.60
2018-04-15T02:09:23.869Z,11.60
2018-04-15T02:11:50.150Z,11.60
2018-04-15T02:14:16.380Z,11.60
2018-04-15T02:16:42.630Z,11.70
2018-04-15T02:19:08.931Z,11.60
2018-04-15T02:21:35.133Z,11.70
2018-04-15T02:24:01.565Z,11.70
2018-04-15T02:26:27.754Z,11.70
2018-04-15T02:28:54.723Z,11.80
2018-04-15T02:31:20.932Z,11.80
2018-04-15T02:33:47.141Z,11.80
2018-04-15T02:36:13.431Z,11.80
2018-04-15T02:38:40.401Z,11.80
2018-04-15T02:41:06.742Z,11.80
2018-04-15T02:43:33.032Z,11.80
2018-04-15T02:45:59.311Z,11.80
2018-04-15T02:48:25.541Z,11.80
2018-04-15T02:50:51.762Z,11.80
2018-04-15T02:53:18.079Z,11.80
2018-04-15T02:55:44.376Z,11.80
2018-04-15T02:58:11.370Z,11.80
2018-04-15T03:00:37.680Z,11.80
2018-04-15T03:03:04.650Z,11.90
2018-04-15T03:05:31.040Z,11.90
2018-04-15T03:07:57.329Z,11.90
2018-04-15T03:10:23.588Z,11.80
2018-04-15T03:12:50.763Z,11.90
2018-04-15T03:15:17.039Z,11.90
2018-04-15T03:17:43.284Z,11.90
2018-04-15T03:20:09.591Z,11.80
2018-04-15T03:22:35.795Z,11.80
2018-04-15T03:25:02.822Z,11.70
2018-04-15T03:27:29.052Z,11.70
2018-04-15T03:29:56.303Z,11.70
2018-04-15T03:32:22.530Z,11.70
2018-04-15T03:34:48.766Z,11.70
2018-04-15T03:37:15.079Z,11.80
2018-04-15T03:39:41.284Z,11.80
2018-04-15T03:42:07.515Z,11.80
2018-04-15T03:44:33.730Z,11.80
2018-04-15T03:46:59.976Z,11.80
2018-04-15T03:49:26.397Z,11.80
2018-04-15T03:51:52.639Z,11.80
2018-04-15T03:54:18.855Z,11.80
2018-04-15T03:56:45.176Z,11.80
2018-04-15T03:59:11.430Z,11.80
2018-04-15T04:01:37.643Z,11.80
2018-04-15T04:04:03.907Z,11.80
2018-04-15T04:06:30.124Z,11.80
2018-04-15T04:08:56.411Z,11.80
2018-04-15T04:11:22.658Z,11.80
2018-04-15T04:13:48.959Z,11.80
2018-04-15T04:16:15.202Z,11.90
2018-04-15T04:18:53.642Z,11.90
2018-04-15T04:21:31.994Z,11.90
2018-04-15T04:24:10.333Z,11.90
2018-04-15T04:26:36.518Z,11.80
2018-04-15T04:29:02.794Z,11.90
2018-04-15T04:31:29.052Z,11.80
2018-04-15T04:33:55.300Z,11.80
2018-04-15T04:36:21.511Z,11.70
2018-04-15T04:38:47.739Z,11.70
2018-04-15T04:41:13.967Z,11.70
2018-04-15T04:43:40.207Z,11.60
2018-04-15T04:46:06.441Z,11.60
2018-04-15T04:48:32.735Z,11.60
2018-04-15T04:50:58.995Z,11.60
2018-04-15T04:53:25.280Z,11.70
2018-04-15T04:55:51.471Z,11.70
2018-04-15T04:58:17.666Z,11.70
2018-04-15T05:00:43.916Z,11.70
2018-04-15T05:03:10.137Z,11.70
2018-04-15T05:05:36.356Z,11.70
2018-04-15T05:08:03.282Z,11.70
2018-04-15T05:10:29.582Z,11.60
2018-04-15T05:12:55.774Z,11.70
2018-04-15T05:15:22.008Z,11.70
2018-04-15T05:17:48.192Z,11.70
2018-04-15T05:20:14.439Z,11.70
2018-04-15T05:22:40.623Z,11.70
2018-04-15T05:25:06.859Z,11.70
2018-04-15T05:27:33.058Z,11.70
2018-04-15T05:29:59.302Z,11.80
2018-04-15T05:32:25.588Z,11.80
2018-04-15T05:34:51.798Z,11.80
2018-04-15T05:37:18.246Z,11.70
2018-04-15T05:39:44.426Z,11.70
2018-04-15T05:42:10.747Z,11.70
2018-04-15T05:44:37.715Z,11.80
2018-04-15T05:47:03.911Z,11.80
2018-04-15T05:49:31.114Z,11.90
2018-04-15T05:51:58.396Z,11.90
2018-04-15T05:54:25.664Z,11.90
2018-04-15T05:56:52.912Z,11.90
2018-04-15T05:59:19.330Z,11.80
2018-04-15T06:01:45.566Z,11.80
2018-04-15T06:04:11.748Z,11.90
2018-04-15T06:06:38.067Z,12.00
2018-04-15T06:09:05.198Z,12.00
2018-04-15T06:11:32.459Z,12.00
2018-04-15T06:13:58.752Z,12.10
2018-04-15T06:16:24.995Z,12.10
2018-04-15T06:18:51.255Z,12.20
2018-04-15T06:21:17.465Z,12.20
2018-04-15T06:23:43.713Z,12.20
2018-04-15T06:26:09.899Z,12.20
2018-04-15T06:28:36.462Z,12.20
2018-04-15T06:31:02.714Z,12.20
2018-04-15T06:33:28.973Z,12.30
2018-04-15T06:35:55.283Z,12.40
2018-04-15T06:38:21.706Z,12.40
2018-04-15T06:40:47.981Z,12.50
2018-04-15T06:43:14.204Z,12.50
2018-04-15T06:45:42.395Z,12.60
2018-04-15T06:48:08.836Z,12.70
2018-04-15T06:50:35.070Z,12.80
2018-04-15T06:53:02.035Z,13.20
2018-04-15T06:55:28.484Z,13.20
2018-04-15T06:57:54.758Z,13.40
2018-04-15T07:00:20.978Z,13.60
2018-04-15T07:02:47.201Z,13.70
2018-04-15T07:05:13.431Z,13.70
2018-04-15T07:07:39.800Z,13.90
2018-04-15T07:10:06.097Z,13.90
2018-04-15T07:12:32.468Z,13.90
2018-04-15T07:14:58.759Z,13.80
2018-04-15T07:17:27.198Z,13.80
2018-04-15T07:19:54.256Z,13.80
2018-04-15T07:22:21.488Z,13.90
2018-04-15T07:24:50.853Z,14.00
2018-04-15T07:27:17.561Z,13.90
2018-04-15T07:29:44.052Z,14.00
2018-04-15T07:32:11.140Z,14.10
2018-04-15T07:34:39.468Z,14.20
2018-04-15T07:37:12.518Z,14.30
2018-04-15T07:39:43.376Z,14.40
2018-04-15T07:42:10.187Z,14.50
2018-04-15T07:44:37.159Z,14.60
2018-04-15T07:47:10.917Z,14.80
2018-04-15T07:49:42.948Z,14.90
2018-04-15T07:52:10.288Z,14.80
2018-04-15T07:54:42.668Z,14.80
2018-04-15T07:57:11.903Z,14.90
2018-04-15T07:59:43.034Z,15.10
2018-04-15T08:02:10.043Z,15.30
2018-04-15T08:04:36.874Z,15.40
2018-04-15T08:07:03.904Z,15.40
2018-04-15T08:09:30.245Z,15.40
2018-04-15T08:11:56.436Z,15.40
2018-04-15T08:14:22.662Z,15.20
2018-04-15T08:16:48.890Z,15.40
2018-04-15T08:19:15.184Z,15.50
2018-04-15T08:21:42.754Z,15.60
2018-04-15T08:24:09.276Z,15.40
2018-04-15T08:26:36.219Z,15.50
2018-04-15T08:29:02.448Z,15.40
2018-04-15T08:31:29.246Z,15.80
2018-04-15T08:33:55.576Z,15.80
2018-04-15T08:36:22.002Z,15.90
2018-04-15T08:38:48.379Z,15.90
2018-04-15T08:41:14.669Z,16.00
2018-04-15T08:43:40.885Z,16.10
2018-04-15T08:46:07.208Z,16.10
2018-04-15T08:48:33.436Z,16.10
2018-04-15T08:51:10.368Z,15.90
2018-04-15T08:53:36.628Z,15.90
2018-04-15T08:56:02.910Z,16.00
2018-04-15T08:58:29.889Z,16.20
2018-04-15T09:00:56.141Z,16.20
2018-04-15T09:03:22.417Z,16.30
2018-04-15T09:05:48.640Z,16.30
2018-04-15T09:08:14.906Z,15.90
2018-04-15T09:10:41.306Z,16.10
2018-04-15T09:13:07.715Z,16.20
2018-04-15T09:15:33.966Z,16.30
2018-04-15T09:18:01.015Z,16.50
2018-04-15T09:20:27.269Z,16.50
2018-04-15T09:22:54.239Z,16.70
2018-04-15T09:25:20.433Z,16.70
2018-04-15T09:27:46.782Z,17.00
2018-04-15T09:30:13.023Z,17.10
2018-04-15T09:32:39.231Z,17.00
2018-04-15T09:35:05.457Z,17.00
2018-04-15T09:37:31.672Z,17.20
2018-04-15T09:39:57.967Z,17.10
2018-04-15T09:42:24.228Z,17.10
2018-04-15T09:44:50.871Z,17.30
2018-04-15T09:47:17.217Z,17.30
2018-04-15T09:49:43.556Z,17.20
2018-04-15T09:52:09.854Z,16.90
2018-04-15T09:54:36.402Z,17.00
2018-04-15T09:57:02.683Z,17.20
2018-04-15T09:59:28.942Z,17.40
2018-04-15T10:01:58.889Z,17.40
2018-04-15T10:04:27.227Z,17.30
2018-04-15T10:06:53.816Z,17.40
2018-04-15T10:09:21.336Z,17.60
2018-04-15T10:11:47.867Z,17.60
2018-04-15T10:14:14.266Z,17.60
2018-04-15T10:16:46.065Z,17.60
2018-04-15T10:19:13.044Z,17.70
2018-04-15T10:21:39.293Z,17.90
2018-04-15T10:24:05.929Z,18.00
2018-04-15T10:26:32.210Z,18.10
2018-04-15T10:28:58.514Z,18.30
2018-04-15T10:31:26.659Z,18.50
2018-04-15T10:33:52.930Z,18.50
2018-04-15T10:36:19.175Z,18.70
2018-04-15T10:38:45.508Z,18.80
2018-04-15T10:41:11.704Z,18.80
2018-04-15T10:43:37.892Z,19.00
2018-04-15T10:46:14.511Z,19.00
2018-04-15T10:48:40.766Z,19.20
2018-04-15T10:51:07.956Z,19.30
2018-04-15T10:53:34.186Z,19.40
2018-04-15T10:56:00.389Z,19.40
2018-04-15T10:58:26.793Z,19.50
2018-04-15T11:00:54.084Z,19.50
2018-04-15T11:03:20.470Z,19.70
2018-04-15T11:05:46.711Z,19.80
2018-04-15T11:08:14.120Z,19.80
2018-04-15T11:10:44.842Z,19.90
2018-04-15T11:13:11.237Z,19.80
2018-04-15T11:15:37.621Z,19.80
2018-04-15T11:18:03.991Z,19.80
2018-04-15T11:20:30.220Z,20.10
2018-04-15T11:22:59.536Z,20.40
2018-04-15T11:25:25.914Z,20.60
2018-04-15T11:27:52.381Z,20.70
2018-04-15T11:30:18.902Z,20.90
2018-04-15T11:32:45.311Z,21.00
2018-04-15T11:35:13.048Z,21.20
2018-04-15T11:37:44.147Z,21.10
2018-04-15T11:40:12.778Z,21.50
2018-04-15T11:42:43.383Z,21.60
2018-04-15T11:45:13.009Z,21.30
2018-04-15T11:47:45.058Z,21.30
2018-04-15T11:50:13.445Z,21.10
2018-04-15T11:52:43.726Z,21.10
2018-04-15T11:55:13.129Z,21.00
2018-04-15T11:57:40.505Z,20.90
2018-04-15T12:00:06.805Z,21.00
2018-04-15T12:02:33.417Z,20.90
2018-04-15T12:04:59.664Z,20.80
2018-04-15T12:07:25.888Z,20.80
2018-04-15T12:09:52.079Z,20.70
2018-04-15T12:12:19.110Z,20.80
2018-04-15T12:14:45.443Z,20.80
2018-04-15T12:17:11.848Z,20.60
2018-04-15T12:19:38.069Z,20.70
2018-04-15T12:22:04.316Z,20.60
2018-04-15T12:24:30.595Z,20.80
2018-04-15T12:26:56.920Z,20.80
2018-04-15T12:29:23.400Z,20.70
2018-04-15T12:31:49.755Z,21.00
2018-04-15T12:34:16.092Z,21.00
2018-04-15T12:36:42.530Z,21.00
2018-04-15T12:39:09.309Z,21.10
2018-04-15T12:41:36.673Z,21.60
2018-04-15T12:44:03.097Z,22.20
2018-04-15T12:46:29.426Z,23.00
2018-04-15T12:48:55.687Z,23.20
2018-04-15T12:51:23.776Z,23.80
2018-04-15T12:53:50.064Z,24.40
2018-04-15T12:56:17.071Z,24.80
2018-04-15T12:58:43.385Z,24.70
2018-04-15T13:01:09.665Z,24.50
2018-04-15T13:03:36.012Z,25.00
2018-04-15T13:06:02.377Z,25.50
2018-04-15T13:08:28.817Z,25.10
2018-04-15T13:10:55.184Z,24.40
2018-04-15T13:13:21.637Z,24.30
2018-04-15T13:15:47.980Z,24.10
2018-04-15T13:18:14.327Z,23.90
2018-04-15T13:20:44.336Z,24.10
2018-04-15T13:29:16.571Z,23.40
2018-04-15T13:31:42.792Z,23.20
2018-04-15T13:34:09.125Z,23.20
2018-04-15T13:36:35.422Z,23.00
2018-04-15T13:39:02.428Z,23.50
2018-04-15T13:41:28.846Z,23.50
2018-04-15T13:43:56.464Z,23.80
2018-04-15T13:46:27.885Z,23.00
2018-04-15T13:48:54.172Z,22.60
2018-04-15T13:51:23.387Z,22.80
2018-04-15T13:53:49.673Z,23.40
2018-04-15T13:56:18.931Z,23.50
2018-04-15T13:58:53.130Z,23.50
2018-04-15T14:01:21.160Z,23.20
2018-04-15T14:03:52.244Z,22.90
2018-04-15T14:06:19.598Z,23.00
2018-04-15T14:08:46.124Z,23.20
2018-04-15T14:11:12.685Z,23.30
2018-04-15T14:13:39.917Z,23.80
2018-04-15T14:18:53.656Z,24.30
2018-04-15T14:21:28.866Z,24.60
2018-04-15T14:24:00.249Z,24.60
2018-04-15T14:26:27.579Z,24.80
2018-04-15T14:28:59.473Z,25.10
2018-04-15T14:31:37.959Z,25.10
2018-04-15T14:34:05.547Z,25.10
2018-04-15T14:36:34.236Z,25.00
2018-04-15T14:39:01.623Z,24.90
2018-04-15T14:41:30.402Z,24.70
2018-04-15T14:44:08.315Z,24.40
2018-04-15T14:46:39.781Z,24.40
2018-04-15T14:49:07.215Z,24.20
2018-04-15T14:51:35.086Z,24.10
2018-04-15T14:54:07.541Z,24.10
2018-04-15T14:56:35.145Z,24.10
2018-04-15T14:59:01.437Z,24.00
2018-04-15T15:01:27.754Z,24.00
2018-04-15T15:03:54.116Z,24.00
2018-04-15T15:06:20.428Z,23.90
2018-04-15T15:08:46.667Z,23.60
2018-04-15T15:11:12.936Z,23.50
2018-04-15T15:13:39.224Z,23.30
2018-04-15T15:16:05.475Z,23.00
2018-04-15T15:18:31.693Z,22.80
2018-04-15T15:20:57.951Z,22.70
2018-04-15T15:23:24.333Z,22.70
2018-04-15T15:25:51.335Z,22.20
2018-04-15T15:28:17.786Z,22.20
2018-04-15T15:30:44.836Z,22.50
2018-04-15T15:33:11.214Z,22.50
2018-04-15T15:35:38.067Z,22.30
2018-04-15T15:38:04.463Z,22.30
2018-04-15T15:40:31.467Z,22.40
2018-04-15T15:42:57.728Z,22.40
2018-04-15T15:45:24.006Z,22.20
2018-04-15T15:47:50.354Z,22.30
2018-04-15T15:50:17.393Z,22.30
2018-04-15T15:52:43.718Z,22.30
2018-04-15T15:55:10.339Z,22.30
2018-04-15T15:57:36.688Z,22.30
2018-04-15T16:00:04.110Z,22.30
2018-04-15T16:02:30.725Z,22.40
2018-04-15T16:04:56.993Z,22.50
2018-04-15T16:07:23.393Z,22.00
2018-04-15T16:09:49.927Z,22.10
2018-04-15T16:12:24.235Z,22.30
2018-04-15T16:14:55.224Z,22.10
2018-04-15T16:17:22.566Z,22.10
2018-04-15T16:19:49.332Z,22.00
2018-04-15T16:22:15.604Z,21.90
2018-04-15T16:27:21.510Z,21.80
2018-04-15T16:29:48.864Z,21.80
2018-04-15T16:32:15.271Z,21.70
2018-04-15T16:34:43.041Z,21.80
2018-04-15T16:37:09.435Z,21.70
2018-04-15T16:39:35.759Z,21.70
2018-04-15T16:42:02.086Z,21.60
2018-04-15T16:44:28.350Z,21.60
2018-04-15T16:46:54.720Z,21.50
2018-04-15T16:49:21.413Z,21.40
2018-04-15T16:51:49.771Z,21.30
2018-04-15T16:57:08.317Z,21.20
2018-04-15T16:59:36.732Z,21.10
2018-04-15T17:02:04.376Z,21.00
2018-04-15T17:04:38.123Z,20.90
2018-04-15T17:07:08.071Z,20.80
2018-04-15T17:09:38.648Z,20.80
2018-04-15T17:12:08.283Z,20.70
2018-04-15T17:14:35.541Z,20.50
2018-04-15T17:17:04.283Z,20.50
2018-04-15T17:19:30.596Z,20.50
2018-04-15T17:21:56.920Z,20.40
2018-04-15T17:24:24.381Z,20.40
2018-04-15T17:26:51.376Z,20.10
2018-04-15T17:29:17.628Z,20.10
2018-04-15T17:31:43.926Z,20.10
2018-04-15T17:34:10.174Z,20.00
2018-04-15T17:36:36.515Z,20.00
2018-04-15T17:39:02.810Z,19.80
2018-04-15T17:41:29.093Z,19.70
2018-04-15T17:43:55.450Z,19.50
2018-04-15T17:46:22.432Z,19.40
2018-04-15T17:48:48.764Z,19.40
2018-04-15T17:51:15.031Z,19.40
2018-04-15T17:53:41.391Z,19.40
2018-04-15T17:56:07.722Z,19.20
2018-04-15T17:58:34.190Z,19.20
2018-04-15T18:01:00.583Z,19.10
2018-04-15T18:03:26.852Z,19.10
2018-04-15T18:05:54.230Z,18.90
2018-04-15T18:08:20.855Z,18.70
2018-04-15T18:10:47.182Z,18.60
2018-04-15T18:13:13.621Z,18.60
2018-04-15T18:15:41.024Z,18.50
2018-04-15T18:18:07.314Z,18.50
2018-04-15T18:20:33.595Z,18.30
2018-04-15T18:22:59.914Z,18.20
2018-04-15T18:25:27.218Z,18.20
2018-04-15T18:27:56.927Z,18.20
2018-04-15T18:30:23.399Z,18.10
2018-04-15T18:32:49.624Z,18.10
2018-04-15T18:35:16.207Z,18.00
2018-04-15T18:37:42.562Z,18.00
2018-04-15T18:40:09.037Z,18.00
2018-04-15T18:42:37.741Z,17.80
2018-04-15T18:45:04.046Z,17.80
2018-04-15T18:47:31.338Z,17.90
2018-04-15T18:52:47.286Z,17.80
2018-04-15T18:55:13.596Z,17.80
2018-04-15T18:57:40.669Z,17.80
2018-04-15T19:00:07.065Z,17.80
2018-04-15T19:02:57.092Z,17.70
2018-04-15T19:05:24.428Z,17.60
2018-04-15T19:07:52.033Z,17.50
2018-04-15T19:10:19.410Z,17.50
2018-04-15T19:12:46.574Z,17.40
2018-04-15T19:15:13.208Z,17.40
2018-04-15T19:20:32.972Z,17.30
2018-04-15T19:22:59.423Z,17.30
2018-04-15T19:25:29.767Z,17.30
2018-04-15T19:27:56.490Z,17.30
2018-04-15T19:30:29.627Z,17.20
2018-04-15T19:32:58.878Z,17.10
2018-04-15T19:41:04.452Z,17.10
2018-04-15T19:43:32.917Z,17.00
2018-04-15T19:45:59.385Z,17.10
2018-04-15T19:48:29.584Z,17.10
2018-04-15T19:50:56.888Z,17.10
2018-04-15T19:53:25.814Z,17.00
2018-04-15T19:55:53.159Z,17.00
2018-04-15T19:58:20.013Z,17.10
2018-04-15T20:00:59.657Z,17.00
2018-04-15T20:03:26.274Z,17.00
2018-04-15T20:05:54.889Z,17.00
2018-04-15T20:08:28.658Z,16.90
2018-04-15T20:10:58.211Z,16.90
2018-04-15T20:13:27.654Z,16.80
2018-04-15T20:15:53.933Z,16.80
2018-04-15T20:18:20.279Z,16.90
2018-04-15T20:20:47.325Z,16.80
2018-04-15T20:23:14.345Z,16.80
2018-04-15T20:25:41.018Z,16.80
2018-04-15T20:28:12.499Z,16.80
2018-04-15T20:30:38.735Z,16.90
2018-04-15T20:33:04.935Z,16.90
2018-04-15T20:35:31.159Z,16.80
2018-04-15T20:37:58.435Z,16.70
2018-04-15T20:40:25.785Z,16.60
2018-04-15T20:42:52.039Z,16.70
2018-04-15T20:45:18.258Z,16.80
2018-04-15T20:47:44.637Z,16.80
2018-04-15T20:50:10.953Z,16.80
2018-04-15T20:52:37.249Z,16.80
2018-04-15T20:55:03.737Z,16.60
2018-04-15T20:57:30.326Z,16.60
2018-04-15T20:59:57.585Z,16.60
2018-04-15T21:02:23.826Z,16.30
2018-04-15T21:04:50.074Z,16.40
2018-04-15T21:07:16.461Z,16.30
2018-04-15T21:09:42.742Z,16.30
2018-04-15T21:12:09.089Z,16.30
2018-04-15T21:14:35.290Z,16.30
2018-04-15T21:17:02.259Z,16.20
2018-04-15T21:19:29.702Z,16.10
2018-04-15T21:21:56.736Z,15.90
2018-04-15T21:24:23.007Z,15.80
2018-04-15T21:26:49.355Z,15.70
2018-04-15T21:29:15.812Z,15.60
2018-04-15T21:31:42.193Z,15.50
2018-04-15T21:34:08.493Z,15.40
2018-04-15T21:36:37.148Z,15.30
2018-04-15T21:39:03.690Z,15.10
2018-04-15T21:41:30.373Z,15.10
2018-04-15T21:43:56.865Z,15.10
2018-04-15T21:46:23.141Z,15.10
2018-04-15T21:48:49.613Z,15.10
2018-04-15T21:51:18.015Z,15.10
2018-04-15T21:53:44.326Z,15.00
2018-04-15T21:56:10.587Z,15.00
2018-04-15T21:58:36.835Z,15.00
2018-04-15T22:01:03.192Z,15.00
2018-04-15T22:03:29.464Z,15.00
2018-04-15T22:05:57.958Z,15.00
2018-04-15T22:11:11.997Z,14.90
2018-04-15T22:13:38.295Z,15.00
2018-04-15T22:16:06.644Z,14.90
2018-04-15T22:18:34.880Z,14.70
2018-04-15T22:21:01.435Z,14.70
2018-04-15T22:23:42.530Z,14.80
2018-04-15T22:26:12.009Z,14.80
2018-04-15T22:28:38.437Z,14.80
2018-04-15T22:31:08.887Z,14.80
2018-04-15T22:33:40.254Z,14.90
2018-04-15T22:36:07.440Z,14.80
2018-04-15T22:38:34.436Z,14.80
2018-04-15T22:41:00.876Z,14.70
2018-04-15T22:43:27.251Z,14.80
2018-04-15T22:45:53.774Z,14.70
2018-04-15T22:48:20.118Z,14.60
2018-04-15T22:50:46.620Z,14.60
2018-04-15T22:53:13.059Z,14.50
2018-04-15T22:55:40.108Z,14.60
2018-04-15T22:58:06.507Z,14.50
2018-04-15T23:03:15.380Z,14.50
2018-04-15T23:05:43.003Z,14.50
2018-04-15T23:08:12.306Z,14.30
2018-04-15T23:10:42.706Z,14.30
2018-04-15T23:13:12.832Z,14.40
2018-04-15T23:15:42.825Z,14.40
2018-04-15T23:18:12.214Z,14.40
2018-04-15T23:20:42.679Z,14.40
2018-04-15T23:23:11.953Z,14.40
2018-04-15T23:25:42.207Z,14.40
2018-04-15T23:28:15.457Z,14.40
2018-04-15T23:30:42.010Z,14.40
2018-04-15T23:33:12.249Z,14.40
2018-04-15T23:35:42.373Z,14.40
2018-04-15T23:38:12.837Z,14.30
2018-04-15T23:43:42.252Z,14.10
2018-04-15T23:46:08.741Z,14.10
2018-04-15T23:48:34.975Z,14.00
2018-04-15T23:51:01.458Z,14.00
2018-04-15T23:53:28.096Z,14.00
2018-04-15T23:55:54.752Z,14.00
2018-04-15T23:58:21.492Z,14.00
